sensor_id;sensor_type;location;lat;lon;timestamp;pressure;altitude;pressure_sealevel;temperature;humidity
37634;BME280;32048;49.902;22.508;2023-05-07T00:00:03;98686.38;;;10.33;100.00
37634;BME280;32048;49.902;22.508;2023-05-07T00:02:55;98688.16;;;10.32;100.00
37634;BME280;32048;49.902;22.508;2023-05-07T00:05:22;98688.94;;;10.34;100.00
37634;BME280;32048;49.902;22.508;2023-05-07T00:07:49;98687.22;;;10.33;100.00
37634;BME280;32048;49.902;22.508;2023-05-07T00:10:17;98684.56;;;10.33;100.00
37634;BME280;32048;49.902;22.508;2023-05-07T00:12:44;98677.59;;;10.32;100.00
37634;BME280;32048;49.902;22.508;2023-05-07T00:15:11;98688.94;;;10.34;100.00
37634;BME280;32048;49.902;22.508;2023-05-07T00:17:38;98681.53;;;10.41;100.00
37634;BME280;32048;49.902;22.508;2023-05-07T00:20:06;98684.72;;;10.48;100.00
37634;BME280;32048;49.902;22.508;2023-05-07T00:22:34;98687.19;;;10.51;100.00
37634;BME280;32048;49.902;22.508;2023-05-07T00:25:01;98694.88;;;10.55;100.00
37634;BME280;32048;49.902;22.508;2023-05-07T00:27:28;98690.97;;;10.63;100.00
37634;BME280;32048;49.902;22.508;2023-05-07T00:29:55;98691.72;;;10.65;100.00
37634;BME280;32048;49.902;22.508;2023-05-07T00:32:22;98684.75;;;10.64;100.00
37634;BME280;32048;49.902;22.508;2023-05-07T00:34:49;98696.16;;;10.64;100.00
37634;BME280;32048;49.902;22.508;2023-05-07T00:37:18;98691.06;;;10.61;100.00
37634;BME280;32048;49.902;22.508;2023-05-07T00:39:44;98689.50;;;10.57;100.00
37634;BME280;32048;49.902;22.508;2023-05-07T00:42:12;98687.97;;;10.53;100.00
37634;BME280;32048;49.902;22.508;2023-05-07T00:44:38;98694.31;;;10.49;100.00
37634;BME280;32048;49.902;22.508;2023-05-07T00:47:06;98697.22;;;10.44;100.00
37634;BME280;32048;49.902;22.508;2023-05-07T00:49:38;98692.25;;;10.38;100.00
37634;BME280;32048;49.902;22.508;2023-05-07T00:52:07;98695.28;;;10.30;100.00
37634;BME280;32048;49.902;22.508;2023-05-07T00:54:34;98692.09;;;10.24;100.00
37634;BME280;32048;49.902;22.508;2023-05-07T00:57:03;98700.25;;;10.19;100.00
37634;BME280;32048;49.902;22.508;2023-05-07T00:59:33;98697.53;;;10.20;100.00
37634;BME280;32048;49.902;22.508;2023-05-07T01:02:00;98701.09;;;10.19;100.00
37634;BME280;32048;49.902;22.508;2023-05-07T01:04:27;98702.19;;;10.15;100.00
37634;BME280;32048;49.902;22.508;2023-05-07T01:06:56;98711.97;;;10.13;100.00
37634;BME280;32048;49.902;22.508;2023-05-07T01:09:25;98716.53;;;10.10;100.00
37634;BME280;32048;49.902;22.508;2023-05-07T01:11:53;98723.63;;;10.09;100.00
37634;BME280;32048;49.902;22.508;2023-05-07T01:14:21;98724.84;;;10.02;100.00
37634;BME280;32048;49.902;22.508;2023-05-07T01:16:49;98722.97;;;10.04;100.00
37634;BME280;32048;49.902;22.508;2023-05-07T01:19:18;98721.22;;;10.05;100.00
37634;BME280;32048;49.902;22.508;2023-05-07T01:21:47;98732.44;;;10.08;100.00
37634;BME280;32048;49.902;22.508;2023-05-07T01:24:15;98727.09;;;10.10;100.00
37634;BME280;32048;49.902;22.508;2023-05-07T01:26:43;98727.81;;;10.13;100.00
37634;BME280;32048;49.902;22.508;2023-05-07T01:29:11;98728.72;;;10.12;100.00
37634;BME280;32048;49.902;22.508;2023-05-07T01:31:40;98734.72;;;10.16;100.00
37634;BME280;32048;49.902;22.508;2023-05-07T01:34:09;98730.13;;;10.19;100.00
37634;BME280;32048;49.902;22.508;2023-05-07T01:36:38;98726.47;;;10.22;100.00
37634;BME280;32048;49.902;22.508;2023-05-07T01:39:06;98730.97;;;10.20;100.00
37634;BME280;32048;49.902;22.508;2023-05-07T01:41:35;98729.28;;;10.19;100.00
37634;BME280;32048;49.902;22.508;2023-05-07T01:44:03;98733.09;;;10.13;100.00
37634;BME280;32048;49.902;22.508;2023-05-07T01:46:31;98737.97;;;10.04;100.00
37634;BME280;32048;49.902;22.508;2023-05-07T01:48:58;98737.34;;;9.98;100.00
37634;BME280;32048;49.902;22.508;2023-05-07T01:51:26;98735.94;;;9.91;100.00
37634;BME280;32048;49.902;22.508;2023-05-07T01:53:53;98742.22;;;9.89;100.00
37634;BME280;32048;49.902;22.508;2023-05-07T01:56:21;98737.16;;;9.84;100.00
37634;BME280;32048;49.902;22.508;2023-05-07T01:58:48;98740.91;;;9.80;100.00
37634;BME280;32048;49.902;22.508;2023-05-07T02:01:16;98742.66;;;9.79;100.00
37634;BME280;32048;49.902;22.508;2023-05-07T02:03:42;98738.31;;;9.78;100.00
37634;BME280;32048;49.902;22.508;2023-05-07T02:06:10;98733.22;;;9.75;100.00
37634;BME280;32048;49.902;22.508;2023-05-07T02:08:37;98743.81;;;9.74;100.00
37634;BME280;32048;49.902;22.508;2023-05-07T02:11:04;98743.19;;;9.69;100.00
37634;BME280;32048;49.902;22.508;2023-05-07T02:13:33;98744.19;;;9.66;100.00
37634;BME280;32048;49.902;22.508;2023-05-07T02:16:01;98743.34;;;9.66;100.00
37634;BME280;32048;49.902;22.508;2023-05-07T02:18:29;98741.53;;;9.66;100.00
37634;BME280;32048;49.902;22.508;2023-05-07T02:20:56;98745.84;;;9.69;100.00
37634;BME280;32048;49.902;22.508;2023-05-07T02:23:23;98736.91;;;9.71;100.00
37634;BME280;32048;49.902;22.508;2023-05-07T02:25:50;98742.09;;;9.73;100.00
37634;BME280;32048;49.902;22.508;2023-05-07T02:28:17;98739.47;;;9.73;100.00
37634;BME280;32048;49.902;22.508;2023-05-07T02:30:44;98736.75;;;9.74;100.00
37634;BME280;32048;49.902;22.508;2023-05-07T02:33:11;98735.06;;;9.73;100.00
37634;BME280;32048;49.902;22.508;2023-05-07T02:35:40;98737.72;;;9.73;100.00
37634;BME280;32048;49.902;22.508;2023-05-07T02:38:07;98734.91;;;9.76;100.00
37634;BME280;32048;49.902;22.508;2023-05-07T02:43:17;98731.75;;;9.87;100.00
37634;BME280;32048;49.902;22.508;2023-05-07T02:45:44;98739.66;;;9.87;100.00
37634;BME280;32048;49.902;22.508;2023-05-07T02:48:11;98736.00;;;9.90;100.00
37634;BME280;32048;49.902;22.508;2023-05-07T02:50:39;98733.22;;;9.93;100.00
37634;BME280;32048;49.902;22.508;2023-05-07T02:53:05;98735.84;;;9.93;100.00
37634;BME280;32048;49.902;22.508;2023-05-07T02:55:33;98736.63;;;9.95;100.00
37634;BME280;32048;49.902;22.508;2023-05-07T02:58:00;98740.16;;;9.95;100.00
37634;BME280;32048;49.902;22.508;2023-05-07T03:00:27;98742.78;;;9.95;100.00
37634;BME280;32048;49.902;22.508;2023-05-07T03:02:54;98742.78;;;9.95;100.00
37634;BME280;32048;49.902;22.508;2023-05-07T03:05:21;98750.53;;;9.98;100.00
37634;BME280;32048;49.902;22.508;2023-05-07T03:07:48;98749.59;;;9.99;100.00
37634;BME280;32048;49.902;22.508;2023-05-07T03:10:16;98752.22;;;9.99;100.00
37634;BME280;32048;49.902;22.508;2023-05-07T03:12:43;98755.63;;;10.02;100.00
37634;BME280;32048;49.902;22.508;2023-05-07T03:15:10;98755.63;;;10.02;100.00
37634;BME280;32048;49.902;22.508;2023-05-07T03:17:39;98759.91;;;10.04;100.00
37634;BME280;32048;49.902;22.508;2023-05-07T03:20:07;98763.31;;;10.06;100.00
37634;BME280;32048;49.902;22.508;2023-05-07T03:22:34;98766.19;;;10.02;100.00
37634;BME280;32048;49.902;22.508;2023-05-07T03:25:02;98772.25;;;10.04;100.00
37634;BME280;32048;49.902;22.508;2023-05-07T03:27:29;98772.31;;;10.02;100.00
37634;BME280;32048;49.902;22.508;2023-05-07T03:29:56;98771.34;;;10.05;100.00
37634;BME280;32048;49.902;22.508;2023-05-07T03:32:23;98784.53;;;10.05;100.00
37634;BME280;32048;49.902;22.508;2023-05-07T03:34:50;98781.72;;;10.08;100.00
37634;BME280;32048;49.902;22.508;2023-05-07T03:37:17;98774.75;;;10.07;100.00
37634;BME280;32048;49.902;22.508;2023-05-07T03:39:44;98780.94;;;10.06;100.00
37634;BME280;32048;49.902;22.508;2023-05-07T03:42:11;98781.97;;;10.03;100.00
37634;BME280;32048;49.902;22.508;2023-05-07T03:44:38;98791.78;;;9.99;100.00
37634;BME280;32048;49.902;22.508;2023-05-07T03:47:05;98784.66;;;10.02;100.00
37634;BME280;32048;49.902;22.508;2023-05-07T03:49:32;98782.19;;;9.98;100.00
37634;BME280;32048;49.902;22.508;2023-05-07T03:51:59;98792.69;;;10.00;100.00
37634;BME280;32048;49.902;22.508;2023-05-07T03:54:27;98789.09;;;10.01;100.00
37634;BME280;32048;49.902;22.508;2023-05-07T03:56:53;98797.63;;;10.06;100.00
37634;BME280;32048;49.902;22.508;2023-05-07T03:59:21;98787.41;;;10.00;100.00
37634;BME280;32048;49.902;22.508;2023-05-07T04:01:48;98798.94;;;9.97;100.00
37634;BME280;32048;49.902;22.508;2023-05-07T04:04:16;98799.09;;;9.94;100.00
37634;BME280;32048;49.902;22.508;2023-05-07T04:06:43;98794.81;;;9.92;100.00
37634;BME280;32048;49.902;22.508;2023-05-07T04:09:10;98796.75;;;9.88;100.00
37634;BME280;32048;49.902;22.508;2023-05-07T04:11:37;98799.53;;;9.85;100.00
37634;BME280;32048;49.902;22.508;2023-05-07T04:14:07;98801.88;;;9.91;100.00
37634;BME280;32048;49.902;22.508;2023-05-07T04:16:34;98803.59;;;9.92;100.00
37634;BME280;32048;49.902;22.508;2023-05-07T04:19:02;98805.44;;;9.90;100.00
37634;BME280;32048;49.902;22.508;2023-05-07T04:21:29;98803.53;;;9.94;100.00
37634;BME280;32048;49.902;22.508;2023-05-07T04:23:56;98808.84;;;9.92;100.00
37634;BME280;32048;49.902;22.508;2023-05-07T04:26:23;98813.22;;;9.93;100.00
37634;BME280;32048;49.902;22.508;2023-05-07T04:28:51;98810.97;;;10.03;100.00
37634;BME280;32048;49.902;22.508;2023-05-07T04:31:18;98818.59;;;10.09;100.00
37634;BME280;32048;49.902;22.508;2023-05-07T04:33:45;98820.28;;;10.10;100.00
37634;BME280;32048;49.902;22.508;2023-05-07T04:36:12;98819.00;;;10.19;100.00
37634;BME280;32048;49.902;22.508;2023-05-07T04:38:39;98836.22;;;10.26;100.00
37634;BME280;32048;49.902;22.508;2023-05-07T04:41:06;98825.84;;;10.23;100.00
37634;BME280;32048;49.902;22.508;2023-05-07T04:43:33;98829.69;;;10.35;100.00
37634;BME280;32048;49.902;22.508;2023-05-07T04:46:01;98835.44;;;10.43;100.00
37634;BME280;32048;49.902;22.508;2023-05-07T04:48:28;98839.47;;;10.50;100.00
37634;BME280;32048;49.902;22.508;2023-05-07T04:50:55;98826.81;;;10.57;100.00
37634;BME280;32048;49.902;22.508;2023-05-07T04:53:22;98829.47;;;10.57;100.00
37634;BME280;32048;49.902;22.508;2023-05-07T04:55:55;98834.50;;;10.61;100.00
37634;BME280;32048;49.902;22.508;2023-05-07T04:58:22;98835.81;;;10.70;100.00
37634;BME280;32048;49.902;22.508;2023-05-07T05:00:50;98841.72;;;10.75;100.00
37634;BME280;32048;49.902;22.508;2023-05-07T05:03:17;98847.53;;;10.82;100.00
37634;BME280;32048;49.902;22.508;2023-05-07T05:05:44;98840.38;;;10.84;100.00
37634;BME280;32048;49.902;22.508;2023-05-07T05:08:12;98853.00;;;10.79;100.00
37634;BME280;32048;49.902;22.508;2023-05-07T05:10:38;98857.09;;;10.67;100.00
37634;BME280;32048;49.902;22.508;2023-05-07T05:13:06;98863.06;;;10.53;100.00
37634;BME280;32048;49.902;22.508;2023-05-07T05:15:33;98860.75;;;10.47;100.00
37634;BME280;32048;49.902;22.508;2023-05-07T05:18:00;98863.69;;;10.41;100.00
37634;BME280;32048;49.902;22.508;2023-05-07T05:20:27;98858.94;;;10.30;100.00
37634;BME280;32048;49.902;22.508;2023-05-07T05:22:55;98868.13;;;10.22;100.00
37634;BME280;32048;49.902;22.508;2023-05-07T05:25:21;98871.00;;;10.17;100.00
37634;BME280;32048;49.902;22.508;2023-05-07T05:27:48;98868.41;;;10.15;100.00
37634;BME280;32048;49.902;22.508;2023-05-07T05:30:16;98863.13;;;10.15;100.00
37634;BME280;32048;49.902;22.508;2023-05-07T05:32:43;98868.63;;;10.11;100.00
37634;BME280;32048;49.902;22.508;2023-05-07T05:35:10;98870.16;;;10.16;100.00
37634;BME280;32048;49.902;22.508;2023-05-07T05:37:37;98874.19;;;10.24;100.00
37634;BME280;32048;49.902;22.508;2023-05-07T05:40:04;98871.06;;;10.34;100.00
37634;BME280;32048;49.902;22.508;2023-05-07T05:42:32;98879.31;;;10.46;100.00
37634;BME280;32048;49.902;22.508;2023-05-07T05:44:58;98880.69;;;10.53;100.00
37634;BME280;32048;49.902;22.508;2023-05-07T05:47:26;98882.88;;;10.62;100.00
37634;BME280;32048;49.902;22.508;2023-05-07T05:49:53;98878.16;;;10.69;100.00
37634;BME280;32048;49.902;22.508;2023-05-07T05:52:20;98884.03;;;10.74;100.00
37634;BME280;32048;49.902;22.508;2023-05-07T05:54:50;98888.25;;;10.78;100.00
37634;BME280;32048;49.902;22.508;2023-05-07T05:57:17;98893.84;;;10.72;100.00
37634;BME280;32048;49.902;22.508;2023-05-07T05:59:44;98902.22;;;10.63;100.00
37634;BME280;32048;49.902;22.508;2023-05-07T06:02:11;98903.06;;;10.46;100.00
37634;BME280;32048;49.902;22.508;2023-05-07T06:04:38;98900.34;;;10.28;100.00
37634;BME280;32048;49.902;22.508;2023-05-07T06:07:05;98904.66;;;10.12;100.00
37634;BME280;32048;49.902;22.508;2023-05-07T06:09:32;98907.09;;;9.97;100.00
37634;BME280;32048;49.902;22.508;2023-05-07T06:12:00;98916.50;;;9.84;100.00
37634;BME280;32048;49.902;22.508;2023-05-07T06:14:26;98912.38;;;9.78;100.00
37634;BME280;32048;49.902;22.508;2023-05-07T06:16:54;98907.38;;;9.72;100.00
37634;BME280;32048;49.902;22.508;2023-05-07T06:19:21;98915.06;;;9.58;100.00
37634;BME280;32048;49.902;22.508;2023-05-07T06:21:50;98914.97;;;9.41;100.00
37634;BME280;32048;49.902;22.508;2023-05-07T06:24:17;98926.72;;;9.33;100.00
37634;BME280;32048;49.902;22.508;2023-05-07T06:26:44;98930.41;;;9.29;100.00
37634;BME280;32048;49.902;22.508;2023-05-07T06:29:12;98929.69;;;9.26;100.00
37634;BME280;32048;49.902;22.508;2023-05-07T06:31:39;98935.03;;;9.24;100.00
37634;BME280;32048;49.902;22.508;2023-05-07T06:34:07;98932.50;;;9.21;100.00
37634;BME280;32048;49.902;22.508;2023-05-07T06:36:34;98942.34;;;9.18;100.00
37634;BME280;32048;49.902;22.508;2023-05-07T06:39:01;98936.28;;;9.15;100.00
37634;BME280;32048;49.902;22.508;2023-05-07T06:41:28;98939.97;;;9.11;100.00
37634;BME280;32048;49.902;22.508;2023-05-07T06:43:55;98936.09;;;9.00;100.00
37634;BME280;32048;49.902;22.508;2023-05-07T06:46:23;98940.03;;;8.89;100.00
37634;BME280;32048;49.902;22.508;2023-05-07T06:48:49;98950.28;;;8.75;100.00
37634;BME280;32048;49.902;22.508;2023-05-07T06:51:17;98945.22;;;8.70;100.00
37634;BME280;32048;49.902;22.508;2023-05-07T06:53:43;98954.16;;;8.66;100.00
37634;BME280;32048;49.902;22.508;2023-05-07T06:56:11;98953.22;;;8.67;100.00
37634;BME280;32048;49.902;22.508;2023-05-07T06:58:37;98949.78;;;8.65;100.00
37634;BME280;32048;49.902;22.508;2023-05-07T07:01:05;98952.31;;;8.68;100.00
37634;BME280;32048;49.902;22.508;2023-05-07T07:03:32;98964.81;;;8.63;100.00
37634;BME280;32048;49.902;22.508;2023-05-07T07:05:59;98965.91;;;8.58;100.00
37634;BME280;32048;49.902;22.508;2023-05-07T07:08:27;98976.00;;;8.46;100.00
37634;BME280;32048;49.902;22.508;2023-05-07T07:10:54;98975.22;;;8.44;100.00
37634;BME280;32048;49.902;22.508;2023-05-07T07:13:21;98971.72;;;8.44;100.00
37634;BME280;32048;49.902;22.508;2023-05-07T07:15:49;98988.13;;;8.50;100.00
37634;BME280;32048;49.902;22.508;2023-05-07T07:18:16;98989.72;;;8.55;100.00
37634;BME280;32048;49.902;22.508;2023-05-07T07:20:43;98974.66;;;8.58;100.00
37634;BME280;32048;49.902;22.508;2023-05-07T07:23:11;98990.16;;;8.66;100.00
37634;BME280;32048;49.902;22.508;2023-05-07T07:25:38;98994.31;;;8.71;100.00
37634;BME280;32048;49.902;22.508;2023-05-07T07:28:05;98994.72;;;8.83;100.00
37634;BME280;32048;49.902;22.508;2023-05-07T07:30:33;98998.81;;;8.90;100.00
37634;BME280;32048;49.902;22.508;2023-05-07T07:33:00;98996.53;;;9.03;100.00
37634;BME280;32048;49.902;22.508;2023-05-07T07:35:30;98990.75;;;9.15;100.00
37634;BME280;32048;49.902;22.508;2023-05-07T07:37:57;98996.53;;;9.23;100.00
37634;BME280;32048;49.902;22.508;2023-05-07T07:40:24;98996.50;;;9.25;100.00
37634;BME280;32048;49.902;22.508;2023-05-07T07:42:52;99006.09;;;9.26;100.00
37634;BME280;32048;49.902;22.508;2023-05-07T07:45:20;99007.69;;;9.30;100.00
37634;BME280;32048;49.902;22.508;2023-05-07T07:47:47;99004.13;;;9.31;100.00
37634;BME280;32048;49.902;22.508;2023-05-07T07:50:14;99012.16;;;9.28;100.00
37634;BME280;32048;49.902;22.508;2023-05-07T07:52:57;99017.31;;;9.31;100.00
37634;BME280;32048;49.902;22.508;2023-05-07T07:55:24;99019.50;;;9.42;100.00
37634;BME280;32048;49.902;22.508;2023-05-07T07:57:51;99017.16;;;9.54;100.00
37634;BME280;32048;49.902;22.508;2023-05-07T08:00:18;99030.41;;;9.73;100.00
37634;BME280;32048;49.902;22.508;2023-05-07T08:02:45;99023.59;;;9.88;100.00
37634;BME280;32048;49.902;22.508;2023-05-07T08:05:13;99032.03;;;9.96;100.00
37634;BME280;32048;49.902;22.508;2023-05-07T08:07:40;99041.50;;;10.01;100.00
37634;BME280;32048;49.902;22.508;2023-05-07T08:10:07;99044.47;;;9.93;100.00
37634;BME280;32048;49.902;22.508;2023-05-07T08:12:34;99044.84;;;9.85;100.00
37634;BME280;32048;49.902;22.508;2023-05-07T08:15:02;99053.28;;;9.73;100.00
37634;BME280;32048;49.902;22.508;2023-05-07T08:17:29;99050.38;;;9.58;100.00
37634;BME280;32048;49.902;22.508;2023-05-07T08:19:56;99055.00;;;9.53;100.00
37634;BME280;32048;49.902;22.508;2023-05-07T08:22:23;99047.34;;;9.47;100.00
37634;BME280;32048;49.902;22.508;2023-05-07T08:24:50;99055.41;;;9.44;100.00
37634;BME280;32048;49.902;22.508;2023-05-07T08:27:18;99058.50;;;9.33;100.00
37634;BME280;32048;49.902;22.508;2023-05-07T08:29:45;99058.09;;;9.22;100.00
37634;BME280;32048;49.902;22.508;2023-05-07T08:32:14;99058.38;;;9.14;100.00
37634;BME280;32048;49.902;22.508;2023-05-07T08:34:41;99057.72;;;9.09;100.00
37634;BME280;32048;49.902;22.508;2023-05-07T08:37:08;99049.75;;;9.11;100.00
37634;BME280;32048;49.902;22.508;2023-05-07T08:39:35;99055.56;;;9.19;100.00
37634;BME280;32048;49.902;22.508;2023-05-07T08:42:04;99061.44;;;9.26;100.00
37634;BME280;32048;49.902;22.508;2023-05-07T08:44:35;99070.69;;;9.36;100.00
37634;BME280;32048;49.902;22.508;2023-05-07T08:47:02;99074.66;;;9.46;100.00
37634;BME280;32048;49.902;22.508;2023-05-07T08:49:29;99077.69;;;9.57;100.00
37634;BME280;32048;49.902;22.508;2023-05-07T08:51:56;99073.78;;;9.66;100.00
37634;BME280;32048;49.902;22.508;2023-05-07T08:54:24;99083.28;;;9.70;100.00
37634;BME280;32048;49.902;22.508;2023-05-07T08:56:51;99083.06;;;9.75;100.00
37634;BME280;32048;49.902;22.508;2023-05-07T08:59:19;99084.00;;;9.74;100.00
37634;BME280;32048;49.902;22.508;2023-05-07T09:01:46;99091.91;;;9.74;100.00
37634;BME280;32048;49.902;22.508;2023-05-07T09:04:13;99091.88;;;9.75;100.00
37634;BME280;32048;49.902;22.508;2023-05-07T09:06:40;99099.84;;;9.74;100.00
37634;BME280;32048;49.902;22.508;2023-05-07T09:09:09;99099.09;;;9.70;100.00
37634;BME280;32048;49.902;22.508;2023-05-07T09:11:35;99107.19;;;9.66;100.00
37634;BME280;32048;49.902;22.508;2023-05-07T09:14:02;99109.25;;;9.59;100.00
37634;BME280;32048;49.902;22.508;2023-05-07T09:16:37;99120.06;;;9.53;100.00
37634;BME280;32048;49.902;22.508;2023-05-07T09:19:04;99117.06;;;9.40;100.00
37634;BME280;32048;49.902;22.508;2023-05-07T09:21:31;99127.00;;;9.33;100.00
37634;BME280;32048;49.902;22.508;2023-05-07T09:23:58;99128.19;;;9.26;100.00
37634;BME280;32048;49.902;22.508;2023-05-07T09:26:25;99135.41;;;9.21;100.00
37634;BME280;32048;49.902;22.508;2023-05-07T09:28:54;99129.41;;;9.18;100.00
37634;BME280;32048;49.902;22.508;2023-05-07T09:31:21;99131.19;;;9.17;100.00
37634;BME280;32048;49.902;22.508;2023-05-07T09:33:52;99139.03;;;9.19;100.00
37634;BME280;32048;49.902;22.508;2023-05-07T09:36:19;99144.47;;;9.14;100.00
37634;BME280;32048;49.902;22.508;2023-05-07T09:38:46;99144.38;;;9.17;100.00
37634;BME280;32048;49.902;22.508;2023-05-07T09:41:13;99149.31;;;9.25;100.00
37634;BME280;32048;49.902;22.508;2023-05-07T09:43:40;99162.50;;;9.25;100.00
37634;BME280;32048;49.902;22.508;2023-05-07T09:46:14;99161.88;;;9.18;100.00
37634;BME280;32048;49.902;22.508;2023-05-07T09:48:43;99163.94;;;9.10;100.00
37634;BME280;32048;49.902;22.508;2023-05-07T09:51:34;99165.44;;;8.95;100.00
37634;BME280;32048;49.902;22.508;2023-05-07T09:54:06;99172.53;;;8.93;100.00
37634;BME280;32048;49.902;22.508;2023-05-07T09:56:34;99173.34;;;8.95;100.00
37634;BME280;32048;49.902;22.508;2023-05-07T09:59:05;99170.88;;;8.90;100.00
37634;BME280;32048;49.902;22.508;2023-05-07T10:01:36;99163.16;;;8.86;100.00
37634;BME280;32048;49.902;22.508;2023-05-07T10:04:04;99177.03;;;8.89;100.00
37634;BME280;32048;49.902;22.508;2023-05-07T10:06:31;99180.47;;;8.91;100.00
37634;BME280;32048;49.902;22.508;2023-05-07T10:08:59;99179.63;;;8.91;100.00
37634;BME280;32048;49.902;22.508;2023-05-07T10:11:26;99170.97;;;8.87;100.00
37634;BME280;32048;49.902;22.508;2023-05-07T10:13:54;99181.78;;;8.81;100.00
37634;BME280;32048;49.902;22.508;2023-05-07T10:16:21;99181.63;;;8.84;100.00
37634;BME280;32048;49.902;22.508;2023-05-07T10:18:50;99184.94;;;8.89;100.00
37634;BME280;32048;49.902;22.508;2023-05-07T10:21:22;99188.09;;;8.99;100.00
37634;BME280;32048;49.902;22.508;2023-05-07T10:23:54;99191.28;;;9.07;100.00
37634;BME280;32048;49.902;22.508;2023-05-07T10:26:23;99197.91;;;9.18;100.00
37634;BME280;32048;49.902;22.508;2023-05-07T10:28:59;99198.97;;;9.13;100.00
37634;BME280;32048;49.902;22.508;2023-05-07T10:31:55;99201.81;;;9.07;100.00
37634;BME280;32048;49.902;22.508;2023-05-07T10:34:28;99211.00;;;8.97;100.00
37634;BME280;32048;49.902;22.508;2023-05-07T10:36:56;99207.81;;;8.89;100.00
37634;BME280;32048;49.902;22.508;2023-05-07T10:39:24;99214.13;;;8.83;100.00
37634;BME280;32048;49.902;22.508;2023-05-07T10:41:51;99209.81;;;8.82;100.00
37634;BME280;32048;49.902;22.508;2023-05-07T10:44:26;99214.31;;;8.79;100.00
37634;BME280;32048;49.902;22.508;2023-05-07T10:47:20;99216.94;;;8.79;100.00
37634;BME280;32048;49.902;22.508;2023-05-07T10:52:19;99207.16;;;8.82;100.00
37634;BME280;32048;49.902;22.508;2023-05-07T10:54:47;99204.66;;;8.79;100.00
37634;BME280;32048;49.902;22.508;2023-05-07T10:57:35;99216.25;;;8.73;100.00
37634;BME280;32048;49.902;22.508;2023-05-07T11:00:03;99219.84;;;8.72;100.00
37634;BME280;32048;49.902;22.508;2023-05-07T11:03:05;99215.38;;;8.74;100.00
37634;BME280;32048;49.902;22.508;2023-05-07T11:05:34;99213.28;;;8.83;100.00
37634;BME280;32048;49.902;22.508;2023-05-07T11:08:04;99206.94;;;8.88;100.00
37634;BME280;32048;49.902;22.508;2023-05-07T11:10:52;99217.47;;;8.88;100.00
37634;BME280;32048;49.902;22.508;2023-05-07T11:13:45;99228.91;;;8.87;100.00
37634;BME280;32048;49.902;22.508;2023-05-07T11:16:25;99224.44;;;8.89;100.00
37634;BME280;32048;49.902;22.508;2023-05-07T11:18:55;99235.91;;;8.88;100.00
37634;BME280;32048;49.902;22.508;2023-05-07T11:21:36;99231.81;;;8.81;100.00
37634;BME280;32048;49.902;22.508;2023-05-07T11:24:05;99229.22;;;8.80;100.00
37634;BME280;32048;49.902;22.508;2023-05-07T11:26:47;99243.56;;;8.71;100.00
37634;BME280;32048;49.902;22.508;2023-05-07T11:29:19;99244.59;;;8.67;100.00
37634;BME280;32048;49.902;22.508;2023-05-07T11:31:57;99245.56;;;8.64;100.00
37634;BME280;32048;49.902;22.508;2023-05-07T11:34:26;99247.41;;;8.62;100.00
37634;BME280;32048;49.902;22.508;2023-05-07T11:36:55;99252.78;;;8.59;100.00
37634;BME280;32048;49.902;22.508;2023-05-07T11:39:29;99256.44;;;8.55;100.00
37634;BME280;32048;49.902;22.508;2023-05-07T11:41:57;99250.19;;;8.58;100.00
37634;BME280;32048;49.902;22.508;2023-05-07T11:44:24;99260.78;;;8.56;100.00
37634;BME280;32048;49.902;22.508;2023-05-07T11:46:51;99260.84;;;8.55;100.00
37634;BME280;32048;49.902;22.508;2023-05-07T11:49:18;99263.41;;;8.56;100.00
37634;BME280;32048;49.902;22.508;2023-05-07T11:51:46;99267.84;;;8.54;100.00
37634;BME280;32048;49.902;22.508;2023-05-07T11:54:16;99266.19;;;8.51;100.00
37634;BME280;32048;49.902;22.508;2023-05-07T11:56:44;99264.53;;;8.49;100.00
37634;BME280;32048;49.902;22.508;2023-05-07T11:59:11;99272.59;;;8.44;100.00
37634;BME280;32048;49.902;22.508;2023-05-07T12:01:39;99273.56;;;8.42;100.00
37634;BME280;32048;49.902;22.508;2023-05-07T12:04:06;99261.31;;;8.41;100.00
37634;BME280;32048;49.902;22.508;2023-05-07T12:06:36;99274.56;;;8.38;100.00
37634;BME280;32048;49.902;22.508;2023-05-07T12:09:03;99278.16;;;8.35;100.00
37634;BME280;32048;49.902;22.508;2023-05-07T12:11:31;99286.97;;;8.34;100.00
37634;BME280;32048;49.902;22.508;2023-05-07T12:13:57;99292.28;;;8.32;100.00
37634;BME280;32048;49.902;22.508;2023-05-07T12:16:26;99288.84;;;8.30;100.00
37634;BME280;32048;49.902;22.508;2023-05-07T12:18:54;99290.78;;;8.25;100.00
37634;BME280;32048;49.902;22.508;2023-05-07T12:21:23;99295.31;;;8.20;100.00
37634;BME280;32048;49.902;22.508;2023-05-07T12:23:50;99296.28;;;8.18;100.00
37634;BME280;32048;49.902;22.508;2023-05-07T12:26:19;99294.63;;;8.15;100.00
37634;BME280;32048;49.902;22.508;2023-05-07T12:28:47;99292.03;;;8.13;100.00
37634;BME280;32048;49.902;22.508;2023-05-07T12:31:14;99292.78;;;8.17;100.00
37634;BME280;32048;49.902;22.508;2023-05-07T12:33:42;99295.44;;;8.17;100.00
37634;BME280;32048;49.902;22.508;2023-05-07T12:36:12;99292.91;;;8.14;100.00
37634;BME280;32048;49.902;22.508;2023-05-07T12:38:40;99290.28;;;8.14;100.00
37634;BME280;32048;49.902;22.508;2023-05-07T12:41:09;99300.00;;;8.12;100.00
37634;BME280;32048;49.902;22.508;2023-05-07T12:43:37;99299.22;;;8.08;100.00
37634;BME280;32048;49.902;22.508;2023-05-07T12:46:06;99301.03;;;8.06;100.00
37634;BME280;32048;49.902;22.508;2023-05-07T12:48:37;99302.84;;;8.04;100.00
37634;BME280;32048;49.902;22.508;2023-05-07T12:51:05;99306.44;;;8.02;100.00
37634;BME280;32048;49.902;22.508;2023-05-07T12:53:40;99304.81;;;7.98;100.00
37634;BME280;32048;49.902;22.508;2023-05-07T12:56:07;99311.00;;;7.97;100.00
37634;BME280;32048;49.902;22.508;2023-05-07T12:58:35;99304.00;;;7.96;100.00